»·PEaware :: N53176 KRNM-KSNA

N53176 :: KRNM-KSNA

FLIGHT INFORMATION

Flight Status: Arrived
Operator: Privately registered:
United States
More flights under this callsign
Pilot: Bill F. (18685)
Aircraft: CESSNA 172 SKYHAWK
(C172)
More flights by this aircraft type
Origin: KRNM Ramona
United States
Destination: KSNA John Wayne-Orange Co
United States
More flights between these airports :: More routes between these airports
Route: +
File this flight plan on PilotEdge
Remarks:
Altitude:
(Current/Filed)
0ft
Speed:
(Current/Filed)
112kts
Departed: 21-May-20 08:40 PM
Arrived: 21-May-20 09:22 PM
Distance/Time
Traveled:
61nm/0:42
Distance/Time
To Go:
Arrived

Flight Plot

Page will automatically refresh every two minutes.


Map Options




Map Legend


Flown Route
Filed Route
Departure Airport
Arrival Airport
Navaid (VOR, NDB)
Fix

Horizontal Profiles

Position Reports

Time Latitude Longitude Heading Altitude Ground
Speed
21-May-20 20:38 33.108375 -117.051762 301 3021ft 118kts
21-May-20 20:39 33.125720 -117.086137 299 3020ft 121kts
21-May-20 20:40 33.142943 -117.121444 298 3017ft 122kts
21-May-20 20:41 33.160231 -117.157257 298 3016ft 123kts
21-May-20 20:42 33.177615 -117.193032 298 3016ft 123kts
21-May-20 20:43 33.194054 -117.229370 293 3016ft 123kts
21-May-20 20:44 33.208133 -117.267099 291 3016ft 122kts
21-May-20 20:45 33.219646 -117.305761 284 3016ft 122kts
21-May-20 20:46 33.229876 -117.344967 285 3016ft 122kts
21-May-20 20:47 33.240123 -117.383567 285 3017ft 116kts
21-May-20 20:48 33.252683 -117.418933 298 3018ft 114kts
21-May-20 20:49 33.272097 -117.449212 312 3020ft 114kts
21-May-20 20:50 33.296259 -117.474430 319 3021ft 115kts
21-May-20 20:51 33.321628 -117.498441 319 3022ft 115kts
21-May-20 20:52 33.347011 -117.522357 320 3023ft 115kts
21-May-20 20:53 33.372108 -117.546427 315 3024ft 114kts
21-May-20 20:54 33.394465 -117.573924 310 3025ft 114kts
21-May-20 20:55 33.416126 -117.602307 310 3026ft 114kts
21-May-20 20:56 33.445740 -117.617199 340 3024ft 115kts
21-May-20 20:57 33.473776 -117.636886 326 3017ft 116kts
21-May-20 20:58 33.500860 -117.658510 320 3012ft 115kts
21-May-20 20:59 33.526781 -117.681875 320 3007ft 116kts
21-May-20 21:00 33.552975 -117.705189 320 3004ft 116kts
21-May-20 21:01 33.579256 -117.728362 320 3001ft 116kts
21-May-20 21:02 33.605882 -117.751672 321 2999ft 120kts
21-May-20 21:03 33.633916 -117.775984 321 2998ft 124kts
21-May-20 21:04 33.662440 -117.800522 321 2998ft 125kts
21-May-20 21:05 33.691054 -117.825018 321 2998ft 125kts
21-May-20 21:06 33.719877 -117.849660 321 2999ft 125kts
21-May-20 21:07 33.748620 -117.874037 321 2998ft 124kts
21-May-20 21:08 33.779715 -117.890314 15 2993ft 127kts
21-May-20 21:09 33.813500 -117.875917 19 2992ft 127kts
21-May-20 21:10 33.847000 -117.861035 22 2988ft 126kts
21-May-20 21:11 33.861943 -117.824514 71 3005ft 120kts
21-May-20 21:12 33.871636 -117.785637 71 3003ft 119kts
21-May-20 21:13 33.863135 -117.752456 169 2997ft 122kts
21-May-20 21:14 33.831000 -117.762568 223 3004ft 121kts
21-May-20 21:15 33.803934 -117.787466 210 2871ft 119kts
21-May-20 21:16 33.774614 -117.806962 208 2199ft 114kts
21-May-20 21:17 33.746446 -117.824658 207 1400ft 114kts
21-May-20 21:18 33.720524 -117.840654 207 988ft 94kts
21-May-20 21:19 33.697722 -117.854638 207 471ft 88kts
21-May-20 21:20 33.677584 -117.867633 208 60ft 58kts
21-May-20 21:21 33.674487 -117.871058 352 60ft 7kts
21-May-20 21:22 33.676535 -117.871170 298 60ft 10kts
21-May-20 21:23 33.677137 -117.871961 25 60ft 0kts
21-May-20 21:24 33.677137 -117.871961 25 60ft 0kts
21-May-20 21:25 33.677137 -117.871961 25 60ft 0kts
21-May-20 21:26 33.677137 -117.871961 25 60ft 0kts
21-May-20 21:27 33.677137 -117.871961 25 60ft 0kts
21-May-20 21:28 33.677137 -117.871961 25 60ft 0kts
21-May-20 21:29 33.677137 -117.871961 25 60ft 0kts
21-May-20 21:30 33.677137 -117.871961 25 60ft 0kts
21-May-20 21:31 33.677137 -117.871961 25 60ft 0kts
21-May-20 21:32 33.677137 -117.871961 25 60ft 0kts
21-May-20 21:33 33.677137 -117.871961 25 60ft 0kts
21-May-20 21:34 33.677137 -117.871961 25 60ft 0kts
21-May-20 21:35 33.677137 -117.871961 25 60ft 0kts

Navigation Log

Ident Type
Flight plan parsing failed, navigation log unavailable